createdAt,value
2016-03-25T00:00:07.900Z,8.38
2016-03-25T00:01:07.872Z,8.44
2016-03-25T00:02:07.844Z,8.44
2016-03-25T00:03:07.815Z,8.42
2016-03-25T00:04:07.802Z,8.42
2016-03-25T00:05:07.773Z,8.41
2016-03-25T00:06:07.744Z,8.42
2016-03-25T00:07:07.740Z,8.46
2016-03-25T00:08:07.695Z,8.42
2016-03-25T00:09:07.665Z,8.42
2016-03-25T00:10:07.637Z,8.52
2016-03-25T00:11:07.625Z,8.51
2016-03-25T00:12:07.596Z,8.45
2016-03-25T00:13:07.551Z,8.48
2016-03-25T00:14:07.539Z,8.55
2016-03-25T00:15:07.526Z,8.52
2016-03-25T00:16:07.481Z,8.45
2016-03-25T00:17:07.453Z,8.46
2016-03-25T00:18:07.425Z,8.42
2016-03-25T00:19:07.411Z,8.45
2016-03-25T00:20:07.383Z,8.48
2016-03-25T00:21:07.355Z,8.45
2016-03-25T00:22:07.357Z,8.42
2016-03-25T00:23:07.313Z,8.52
2016-03-25T00:24:07.285Z,8.53
2016-03-25T00:25:07.255Z,8.42
2016-03-25T00:26:07.243Z,8.42
2016-03-25T00:27:07.199Z,8.42
2016-03-25T00:28:07.170Z,8.42
2016-03-25T00:29:07.142Z,8.46
2016-03-25T00:30:07.144Z,8.52
2016-03-25T00:31:07.099Z,8.53
2016-03-25T00:32:07.071Z,8.48
2016-03-25T00:33:07.059Z,8.44
2016-03-25T00:34:07.015Z,8.42
2016-03-25T00:35:07.018Z,8.46
2016-03-25T00:36:06.973Z,8.49
2016-03-25T00:37:06.945Z,8.45
2016-03-25T00:38:06.915Z,8.52
2016-03-25T00:39:06.887Z,8.44
2016-03-25T00:40:06.874Z,8.49
2016-03-25T00:41:06.861Z,8.58
2016-03-25T00:42:06.817Z,8.55
2016-03-25T00:43:06.789Z,8.44
2016-03-25T00:44:06.759Z,8.61
2016-03-25T00:45:06.748Z,8.55
2016-03-25T00:46:06.719Z,8.55
2016-03-25T00:47:06.674Z,8.56
2016-03-25T00:48:06.662Z,8.6
2016-03-25T00:49:06.633Z,8.58
2016-03-25T00:50:06.619Z,8.63
2016-03-25T00:51:06.592Z,8.52
2016-03-25T00:52:06.563Z,8.55
2016-03-25T00:53:06.550Z,8.42
2016-03-25T00:54:06.506Z,8.53
2016-03-25T00:55:06.493Z,8.53
2016-03-25T00:56:06.464Z,8.55
2016-03-25T00:57:06.419Z,8.45
2016-03-25T00:58:06.407Z,8.51
2016-03-25T00:59:06.378Z,8.56
2016-03-25T01:00:06.350Z,8.44
2016-03-25T01:01:06.321Z,8.42
2016-03-25T01:02:06.308Z,8.53
2016-03-25T01:03:06.280Z,8.49
2016-03-25T01:04:06.252Z,8.55
2016-03-25T01:05:06.238Z,8.52
2016-03-25T01:06:06.194Z,8.6
2016-03-25T01:07:06.182Z,8.58
2016-03-25T01:08:06.153Z,8.53
2016-03-25T01:09:06.124Z,8.6
2016-03-25T01:10:06.096Z,8.56
2016-03-25T01:11:06.161Z,8.61
2016-03-25T01:12:06.039Z,8.55
2016-03-25T01:13:06.025Z,8.56
2016-03-25T01:14:05.997Z,8.55
2016-03-25T01:15:05.968Z,8.58
2016-03-25T01:16:05.940Z,8.56
2016-03-25T01:17:05.928Z,8.6
2016-03-25T01:18:05.883Z,8.58
2016-03-25T01:19:05.870Z,8.61
2016-03-25T01:20:05.842Z,8.56
2016-03-25T01:21:05.813Z,8.61
2016-03-25T01:22:05.784Z,8.56
2016-03-25T01:23:05.771Z,8.61
2016-03-25T01:24:05.742Z,8.55
2016-03-25T01:25:05.714Z,8.64
2016-03-25T01:26:05.686Z,8.56
2016-03-25T01:27:05.657Z,8.58
2016-03-25T01:28:05.644Z,8.63
2016-03-25T01:29:05.599Z,8.53
2016-03-25T01:30:05.588Z,8.6
2016-03-25T01:31:05.558Z,8.6
2016-03-25T01:32:05.546Z,8.6
2016-03-25T01:33:05.516Z,8.64
2016-03-25T01:34:05.473Z,8.55
2016-03-25T01:35:05.460Z,8.6
2016-03-25T01:36:05.432Z,8.58
2016-03-25T01:37:05.402Z,8.58
2016-03-25T01:38:05.374Z,8.63
2016-03-25T01:39:05.345Z,8.61
2016-03-25T01:40:05.332Z,8.61
2016-03-25T01:41:05.304Z,8.63
2016-03-25T01:42:05.291Z,8.66
2016-03-25T01:43:05.247Z,8.66
2016-03-25T01:44:05.218Z,8.69
2016-03-25T01:45:05.206Z,8.64
2016-03-25T01:46:05.176Z,8.63
2016-03-25T01:47:05.148Z,8.63
2016-03-25T01:48:05.120Z,8.63
2016-03-25T01:49:05.091Z,8.55
2016-03-25T01:50:05.078Z,8.63
2016-03-25T01:51:05.050Z,8.66
2016-03-25T01:52:05.021Z,8.6
2016-03-25T01:53:05.039Z,8.61
2016-03-25T01:54:04.980Z,8.6
2016-03-25T01:55:04.935Z,8.56
2016-03-25T01:56:04.922Z,8.6
2016-03-25T01:57:04.910Z,8.61
2016-03-25T01:58:04.866Z,8.55
2016-03-25T01:59:04.836Z,8.56
2016-03-25T02:00:04.824Z,8.53
2016-03-25T02:01:04.796Z,8.53
2016-03-25T02:02:04.767Z,8.56
2016-03-25T02:03:04.738Z,8.49
2016-03-25T02:04:04.724Z,8.45
2016-03-25T02:05:04.696Z,8.55
2016-03-25T02:06:04.684Z,8.45
2016-03-25T02:07:04.640Z,8.45
2016-03-25T02:08:04.626Z,8.56
2016-03-25T02:09:04.582Z,8.45
2016-03-25T02:10:04.585Z,8.48
2016-03-25T02:11:04.540Z,8.42
2016-03-25T02:12:04.512Z,8.45
2016-03-25T02:13:04.484Z,8.45
2016-03-25T02:14:04.470Z,8.45
2016-03-25T02:15:04.427Z,8.45
2016-03-25T02:16:04.414Z,8.42
2016-03-25T02:17:04.369Z,8.49
2016-03-25T02:18:04.357Z,8.46
2016-03-25T02:19:04.328Z,8.48
2016-03-25T02:20:04.314Z,8.46
2016-03-25T02:21:04.287Z,8.45
2016-03-25T02:22:04.258Z,8.44
2016-03-25T02:23:04.386Z,8.38
2016-03-25T02:24:04.200Z,8.41
2016-03-25T02:25:04.172Z,8.44
2016-03-25T02:26:04.144Z,8.34
2016-03-25T02:27:04.130Z,8.31
2016-03-25T02:28:04.102Z,8.31
2016-03-25T02:29:04.073Z,8.34
2016-03-25T02:30:04.060Z,8.3
2016-03-25T02:31:04.017Z,8.36
2016-03-25T02:32:03.988Z,8.3
2016-03-25T02:33:03.959Z,8.24
2016-03-25T02:34:03.947Z,8.2
2016-03-25T02:35:03.918Z,8.31
2016-03-25T02:36:03.889Z,8.3
2016-03-25T02:37:03.860Z,8.27
2016-03-25T02:38:03.863Z,8.28
2016-03-25T02:39:03.819Z,8.28
2016-03-25T02:40:03.791Z,8.27
2016-03-25T02:41:03.778Z,8.3
2016-03-25T02:42:03.734Z,8.2
2016-03-25T02:43:03.705Z,8.28
2016-03-25T02:44:03.676Z,8.3
2016-03-25T02:45:03.663Z,8.2
2016-03-25T02:46:03.634Z,8.26
2016-03-25T02:47:03.598Z,8.2
2016-03-25T02:48:03.555Z,8.27
2016-03-25T02:49:03.512Z,8.23
2016-03-25T02:50:03.467Z,8.24
2016-03-25T02:51:03.440Z,8.18
2016-03-25T02:52:03.401Z,8.2
2016-03-25T02:53:03.383Z,8.13
2016-03-25T02:54:03.334Z,8.15
2016-03-25T02:55:03.300Z,8.18
2016-03-25T02:56:03.282Z,8.09
2016-03-25T02:57:03.233Z,8.16
2016-03-25T02:58:03.219Z,8.18
2016-03-25T02:59:03.188Z,8.18
2016-03-25T03:00:03.158Z,8.16
2016-03-25T03:01:03.127Z,8.16
2016-03-25T03:02:02.957Z,8.16
2016-03-25T03:03:03.084Z,8.19
2016-03-25T03:04:03.055Z,8.16
2016-03-25T03:05:03.025Z,8.19
2016-03-25T03:06:02.995Z,8.15
2016-03-25T03:07:02.966Z,8.23
2016-03-25T03:08:02.985Z,8.06
2016-03-25T03:09:02.940Z,8.06
2016-03-25T03:10:02.895Z,8.08
2016-03-25T03:11:02.882Z,8.18
2016-03-25T03:12:02.837Z,8.19
2016-03-25T03:13:02.856Z,8.18
2016-03-25T03:14:02.796Z,8.24
2016-03-25T03:15:02.767Z,8.16
2016-03-25T03:16:02.786Z,8.09
2016-03-25T03:17:02.711Z,8.08
2016-03-25T03:18:02.681Z,8.12
2016-03-25T03:19:02.653Z,8.08
2016-03-25T03:20:02.641Z,8.12
2016-03-25T03:21:02.612Z,8.1
2016-03-25T03:22:02.442Z,8.12
2016-03-25T03:23:02.586Z,8.01
2016-03-25T03:24:02.542Z,8.12
2016-03-25T03:25:02.513Z,8.15
2016-03-25T03:26:02.469Z,8.06
2016-03-25T03:27:02.456Z,8.16
2016-03-25T03:28:02.427Z,8.1
2016-03-25T03:29:02.400Z,8.12
2016-03-25T03:30:02.372Z,8.1
2016-03-25T03:31:02.358Z,8.03
2016-03-25T03:32:02.314Z,8.01
2016-03-25T03:33:02.302Z,8.03
2016-03-25T03:34:02.272Z,8.08
2016-03-25T03:35:02.260Z,8.05
2016-03-25T03:36:02.216Z,8
2016-03-25T03:37:02.218Z,8.03
2016-03-25T03:38:02.159Z,8.03
2016-03-25T03:39:02.146Z,8.09
2016-03-25T03:40:02.116Z,8.12
2016-03-25T03:41:02.105Z,8.1
2016-03-25T03:42:02.060Z,8.09
2016-03-25T03:43:02.031Z,8.01
2016-03-25T03:44:02.019Z,8.06
2016-03-25T03:45:01.974Z,8.03
2016-03-25T03:46:01.962Z,8.13
2016-03-25T03:47:01.933Z,8
2016-03-25T03:48:01.904Z,8.09
2016-03-25T03:49:01.876Z,8.12
2016-03-25T03:50:01.847Z,8.12
2016-03-25T03:51:01.834Z,8.01
2016-03-25T03:52:01.806Z,8.09
2016-03-25T03:53:01.776Z,8.13
2016-03-25T03:54:01.749Z,8.1
2016-03-25T03:55:01.720Z,8.08
2016-03-25T03:56:01.706Z,8.1
2016-03-25T03:57:01.663Z,8.1
2016-03-25T03:58:01.650Z,8.08
2016-03-25T03:59:01.622Z,8.09
2016-03-25T04:00:01.592Z,8.09
2016-03-25T04:01:01.564Z,7.98
2016-03-25T04:02:01.536Z,8.08
2016-03-25T04:03:01.507Z,8.08
2016-03-25T04:04:01.494Z,8
2016-03-25T04:05:01.466Z,8.08
2016-03-25T04:06:01.437Z,8
2016-03-25T04:07:01.408Z,8.03
2016-03-25T04:08:01.395Z,8.01
2016-03-25T04:09:01.352Z,8.08
2016-03-25T04:10:01.322Z,8.01
2016-03-25T04:11:01.310Z,8
2016-03-25T04:12:01.282Z,8.01
2016-03-25T04:13:01.252Z,7.98
2016-03-25T04:14:01.224Z,8.03
2016-03-25T04:15:01.211Z,8.01
2016-03-25T04:16:01.167Z,8.05
2016-03-25T04:17:01.154Z,8.03
2016-03-25T04:18:01.126Z,8.06
2016-03-25T04:19:01.097Z,8.01
2016-03-25T04:20:01.068Z,8
2016-03-25T04:21:01.040Z,8.03
2016-03-25T04:22:01.026Z,8.05
2016-03-25T04:23:00.999Z,8.03
2016-03-25T04:24:00.970Z,7.98
2016-03-25T04:25:00.941Z,8.15
2016-03-25T04:26:00.912Z,8.01
2016-03-25T04:27:00.884Z,8.08
2016-03-25T04:28:00.871Z,8.08
2016-03-25T04:29:00.842Z,8.09
2016-03-25T04:30:00.814Z,8.06
2016-03-25T04:31:00.786Z,8.12
2016-03-25T04:32:00.756Z,8.05
2016-03-25T04:33:00.728Z,8.05
2016-03-25T04:34:00.716Z,8
2016-03-25T04:35:00.671Z,7.98
2016-03-25T04:36:00.659Z,8.03
2016-03-25T04:37:00.630Z,8.01
2016-03-25T04:38:00.601Z,8.05
2016-03-25T04:39:00.573Z,8.12
2016-03-25T04:40:00.544Z,8.01
2016-03-25T04:41:00.530Z,7.98
2016-03-25T04:42:00.502Z,8.05
2016-03-25T04:43:00.474Z,8.03
2016-03-25T04:44:00.461Z,8.03
2016-03-25T04:45:00.433Z,8.01
2016-03-25T04:46:00.404Z,8.08
2016-03-25T04:47:00.375Z,7.98
2016-03-25T04:48:00.332Z,8.06
2016-03-25T04:49:00.318Z,8.08
2016-03-25T04:50:00.289Z,8.06
2016-03-25T04:51:00.262Z,8.06
2016-03-25T04:52:00.248Z,8.06
2016-03-25T04:53:00.220Z,8.08
2016-03-25T04:54:00.191Z,8.08
2016-03-25T04:55:00.162Z,8.08
2016-03-25T04:56:00.150Z,8.01
2016-03-25T04:56:59.995Z,8
2016-03-25T04:58:00.077Z,8
2016-03-25T04:59:00.048Z,8.01
2016-03-25T05:00:00.051Z,8.01
2016-03-25T05:01:00.007Z,7.97
2016-03-25T05:01:59.994Z,8
2016-03-25T05:02:59.950Z,7.94
2016-03-25T05:03:59.921Z,7.95
2016-03-25T05:04:59.908Z,7.97
2016-03-25T05:05:59.879Z,8.03
2016-03-25T05:06:59.897Z,7.94
2016-03-25T05:07:59.824Z,7.94
2016-03-25T05:08:59.796Z,7.93
2016-03-25T05:09:59.767Z,7.98
2016-03-25T05:10:59.738Z,7.98
2016-03-25T05:11:59.709Z,7.98
2016-03-25T05:12:59.696Z,7.97
2016-03-25T05:13:59.668Z,7.88
2016-03-25T05:14:59.639Z,7.85
2016-03-25T05:15:59.611Z,7.87
2016-03-25T05:16:59.581Z,7.93
2016-03-25T05:17:59.553Z,7.8
2016-03-25T05:18:59.525Z,7.8
2016-03-25T05:19:59.511Z,7.8
2016-03-25T05:20:59.483Z,7.88
2016-03-25T05:21:59.455Z,7.88
2016-03-25T05:22:59.426Z,7.93
2016-03-25T05:23:59.397Z,7.9
2016-03-25T05:24:59.369Z,7.91
2016-03-25T05:25:59.356Z,7.85
2016-03-25T05:26:59.327Z,7.82
2016-03-25T05:27:59.299Z,7.87
2016-03-25T05:28:59.271Z,7.85
2016-03-25T05:29:59.258Z,7.83
2016-03-25T05:30:59.213Z,7.87
2016-03-25T05:31:59.185Z,7.85
2016-03-25T05:32:59.172Z,7.8
2016-03-25T05:33:59.143Z,7.73
2016-03-25T05:34:59.115Z,7.85
2016-03-25T05:35:59.086Z,7.76
2016-03-25T05:36:59.074Z,7.82
2016-03-25T05:37:59.029Z,7.8
2016-03-25T05:38:59.016Z,7.8
2016-03-25T05:39:58.973Z,7.83
2016-03-25T05:40:58.959Z,7.8
2016-03-25T05:41:58.931Z,7.8
2016-03-25T05:42:58.902Z,7.8
2016-03-25T05:43:58.870Z,7.79
2016-03-25T05:44:58.858Z,7.79
2016-03-25T05:45:58.829Z,7.8
2016-03-25T05:46:58.800Z,7.8
2016-03-25T05:47:58.772Z,7.8
2016-03-25T05:48:58.743Z,7.79
2016-03-25T05:49:58.731Z,7.83
2016-03-25T05:50:58.702Z,7.77
2016-03-25T05:51:58.673Z,7.75
2016-03-25T05:52:58.645Z,7.88
2016-03-25T05:53:58.616Z,7.75
2016-03-25T05:54:58.587Z,7.85
2016-03-25T05:55:58.575Z,7.85
2016-03-25T05:56:58.530Z,7.85
2016-03-25T05:57:58.523Z,7.82
2016-03-25T05:58:58.479Z,7.87
2016-03-25T05:59:58.449Z,7.91
2016-03-25T06:00:58.420Z,7.88
2016-03-25T06:01:58.409Z,7.94
2016-03-25T06:02:58.379Z,7.88
2016-03-25T06:03:58.351Z,8
2016-03-25T06:04:58.323Z,7.94
2016-03-25T06:05:58.309Z,7.91
2016-03-25T06:06:58.281Z,7.91
2016-03-25T06:07:58.253Z,7.94
2016-03-25T06:08:58.223Z,7.95
2016-03-25T06:09:58.195Z,7.97
2016-03-25T06:10:58.167Z,7.95
2016-03-25T06:11:58.138Z,7.94
2016-03-25T06:12:58.126Z,7.97
2016-03-25T06:13:58.097Z,7.95
2016-03-25T06:14:58.068Z,7.97
2016-03-25T06:15:58.040Z,8
2016-03-25T06:16:58.011Z,7.97
2016-03-25T06:17:57.982Z,7.95
2016-03-25T06:18:57.969Z,7.98
2016-03-25T06:19:57.941Z,7.97
2016-03-25T06:20:57.913Z,8.08
2016-03-25T06:21:57.883Z,8.06
2016-03-25T06:22:57.855Z,8.09
2016-03-25T06:23:57.843Z,7.94
2016-03-25T06:24:57.813Z,8.06
2016-03-25T06:25:57.769Z,8.01
2016-03-25T06:26:57.757Z,7.95
2016-03-25T06:27:57.728Z,8.06
2016-03-25T06:28:57.699Z,8.09
2016-03-25T06:29:57.687Z,8.01
2016-03-25T06:30:57.657Z,7.98
2016-03-25T06:31:57.629Z,8.01
2016-03-25T06:32:57.601Z,8.01
2016-03-25T06:33:57.573Z,8.03
2016-03-25T06:34:57.544Z,8.03
2016-03-25T06:35:57.515Z,8.05
2016-03-25T06:36:57.487Z,8.01
2016-03-25T06:37:57.474Z,8.08
2016-03-25T06:38:57.445Z,8.01
2016-03-25T06:39:57.416Z,8
2016-03-25T06:40:57.389Z,8.05
2016-03-25T06:41:57.359Z,8.06
2016-03-25T06:42:57.330Z,7.98
2016-03-25T06:43:57.318Z,8
2016-03-25T06:44:57.289Z,8.01
2016-03-25T06:45:57.261Z,8.08
2016-03-25T06:46:57.233Z,8.06
2016-03-25T06:47:57.219Z,8.09
2016-03-25T06:48:57.175Z,8.05
2016-03-25T06:49:57.163Z,7.95
2016-03-25T06:50:57.133Z,8.03
2016-03-25T06:51:57.105Z,8.08
2016-03-25T06:52:57.092Z,8.08
2016-03-25T06:53:57.063Z,8.09
2016-03-25T06:54:57.036Z,7.98
2016-03-25T06:55:57.007Z,8.05
2016-03-25T06:56:56.977Z,7.95
2016-03-25T06:57:56.949Z,8.06
2016-03-25T06:58:56.937Z,7.98
2016-03-25T06:59:56.907Z,8.01
2016-03-25T07:00:56.879Z,8.03
2016-03-25T07:01:56.851Z,8.01
2016-03-25T07:02:56.838Z,7.97
2016-03-25T07:03:56.793Z,8.05
2016-03-25T07:04:56.781Z,8.09
2016-03-25T07:05:56.751Z,8.03
2016-03-25T07:06:56.723Z,8.03
2016-03-25T07:07:56.695Z,8.15
2016-03-25T07:08:56.667Z,8.08
2016-03-25T07:09:56.637Z,8.1
2016-03-25T07:10:56.610Z,8.1
2016-03-25T07:11:56.612Z,8.19
2016-03-25T07:12:56.567Z,8.19
2016-03-25T07:13:56.570Z,8.16
2016-03-25T07:14:56.511Z,8.1
2016-03-25T07:15:56.497Z,8.16
2016-03-25T07:16:56.469Z,8.1
2016-03-25T07:17:56.441Z,8.13
2016-03-25T07:18:56.411Z,8.15
2016-03-25T07:19:56.384Z,8.16
2016-03-25T07:20:56.371Z,8.26
2016-03-25T07:21:56.341Z,8.23
2016-03-25T07:22:56.314Z,8.13
2016-03-25T07:23:56.285Z,8.19
2016-03-25T07:24:56.256Z,8.2
2016-03-25T07:25:56.243Z,8.23
2016-03-25T07:26:56.215Z,8.26
2016-03-25T07:27:56.186Z,8.23
2016-03-25T07:28:56.158Z,8.19
2016-03-25T07:29:56.146Z,8.24
2016-03-25T07:30:56.116Z,8.2
2016-03-25T07:31:56.088Z,8.18
2016-03-25T07:32:56.059Z,8.24
2016-03-25T07:33:56.031Z,8.24
2016-03-25T07:34:56.001Z,8.19
2016-03-25T07:35:55.974Z,8.27
2016-03-25T07:36:55.960Z,8.2
2016-03-25T07:37:55.932Z,8.19
2016-03-25T07:38:55.904Z,8.2
2016-03-25T07:39:55.875Z,8.24
2016-03-25T07:40:55.861Z,8.26
2016-03-25T07:41:55.834Z,8.33
2016-03-25T07:42:55.805Z,8.23
2016-03-25T07:43:55.776Z,8.26
2016-03-25T07:44:55.748Z,8.3
2016-03-25T07:45:55.735Z,8.3
2016-03-25T07:46:55.706Z,8.42
2016-03-25T07:47:55.694Z,8.44
2016-03-25T07:48:55.650Z,8.42
2016-03-25T07:49:55.636Z,8.46
2016-03-25T07:50:55.608Z,8.45
2016-03-25T07:51:55.579Z,8.45
2016-03-25T07:52:55.550Z,8.58
2016-03-25T07:53:55.553Z,8.64
2016-03-25T07:54:55.509Z,8.63
2016-03-25T07:55:55.496Z,8.64
2016-03-25T07:56:55.451Z,8.64
2016-03-25T07:57:55.438Z,8.7
2016-03-25T07:58:55.411Z,8.64
2016-03-25T07:59:55.382Z,8.74
2016-03-25T08:00:55.353Z,8.63
2016-03-25T08:01:55.325Z,8.6
2016-03-25T08:02:55.312Z,8.69
2016-03-25T08:03:55.282Z,8.64
2016-03-25T08:04:55.254Z,8.61
2016-03-25T08:05:55.273Z,8.6
2016-03-25T08:06:55.210Z,8.63
2016-03-25T08:07:55.182Z,8.61
2016-03-25T08:08:55.184Z,8.61
2016-03-25T08:09:55.140Z,8.63
2016-03-25T08:10:55.112Z,8.64
2016-03-25T08:11:55.083Z,8.7
2016-03-25T08:12:55.054Z,8.61
2016-03-25T08:13:55.042Z,8.7
2016-03-25T08:14:55.013Z,8.7
2016-03-25T08:15:54.984Z,8.71
2016-03-25T08:16:54.972Z,8.71
2016-03-25T08:17:54.943Z,8.73
2016-03-25T08:18:54.914Z,8.74
2016-03-25T08:19:54.886Z,8.7
2016-03-25T08:20:54.873Z,8.7
2016-03-25T08:21:54.844Z,8.82
2016-03-25T08:22:54.831Z,8.81
2016-03-25T08:23:54.803Z,8.76
2016-03-25T08:24:54.774Z,8.73
2016-03-25T08:25:54.746Z,8.76
2016-03-25T08:26:54.717Z,8.69
2016-03-25T08:27:54.688Z,8.67
2016-03-25T08:28:54.676Z,8.69
2016-03-25T08:29:54.647Z,8.74
2016-03-25T08:31:00.372Z,8.7
2016-03-25T08:31:54.606Z,8.78
2016-03-25T08:32:54.562Z,8.76
2016-03-25T08:33:54.549Z,8.78
2016-03-25T08:34:54.521Z,8.71
2016-03-25T08:35:54.507Z,8.78
2016-03-25T08:36:54.479Z,8.74
2016-03-25T08:37:54.450Z,8.81
2016-03-25T08:38:54.421Z,8.85
2016-03-25T08:39:54.408Z,8.92
2016-03-25T08:40:54.379Z,8.88
2016-03-25T08:41:54.351Z,8.85
2016-03-25T08:42:54.323Z,9
2016-03-25T08:43:54.310Z,8.95
2016-03-25T08:44:54.281Z,9.02
2016-03-25T08:45:54.253Z,9.03
2016-03-25T08:46:54.240Z,9.02
2016-03-25T08:47:54.211Z,9.04
2016-03-25T08:48:54.183Z,9.11
2016-03-25T08:49:54.170Z,9.08
2016-03-25T08:50:54.142Z,9.06
2016-03-25T08:51:54.129Z,9.04
2016-03-25T08:52:54.116Z,9.1
2016-03-25T08:53:54.072Z,9.06
2016-03-25T08:54:54.042Z,9.03
2016-03-25T08:55:54.014Z,8.99
2016-03-25T08:56:54.002Z,9
2016-03-25T08:57:53.972Z,9.03
2016-03-25T08:58:53.960Z,9.02
2016-03-25T08:59:53.930Z,9.03
2016-03-25T09:00:53.902Z,9.1
2016-03-25T09:01:53.874Z,8.99
2016-03-25T09:02:53.846Z,9.02
2016-03-25T09:03:53.833Z,9.06
2016-03-25T09:04:53.804Z,9.08
2016-03-25T09:05:53.790Z,9.08
2016-03-25T09:06:53.746Z,9.08
2016-03-25T09:07:53.734Z,9.08
2016-03-25T09:08:53.704Z,9.04
2016-03-25T09:09:53.676Z,9.11
2016-03-25T09:10:53.664Z,9.1
2016-03-25T09:11:53.635Z,9.04
2016-03-25T09:12:53.606Z,8.95
2016-03-25T09:13:53.593Z,8.92
2016-03-25T09:14:53.565Z,8.95
2016-03-25T09:15:53.537Z,8.89
2016-03-25T09:16:53.570Z,8.91
2016-03-25T09:17:53.479Z,8.84
2016-03-25T09:18:53.467Z,8.87
2016-03-25T09:19:53.439Z,8.87
2016-03-25T09:20:53.409Z,8.82
2016-03-25T09:21:53.397Z,8.85
2016-03-25T09:22:53.368Z,8.89
2016-03-25T09:23:53.340Z,8.87
2016-03-25T09:24:53.327Z,8.76
2016-03-25T09:25:53.314Z,8.85
2016-03-25T09:26:53.286Z,8.76
2016-03-25T09:27:53.241Z,8.7
2016-03-25T09:28:53.213Z,8.7
2016-03-25T09:29:53.200Z,8.71
2016-03-25T09:30:53.171Z,8.81
2016-03-25T09:31:53.142Z,8.74
2016-03-25T09:32:53.130Z,8.76
2016-03-25T09:33:53.101Z,8.82
2016-03-25T09:34:53.072Z,8.78
2016-03-25T09:35:53.044Z,8.82
2016-03-25T09:36:53.030Z,8.88
2016-03-25T09:37:53.002Z,8.82
2016-03-25T09:38:52.974Z,9
2016-03-25T09:39:52.945Z,9
2016-03-25T09:40:52.932Z,8.94
2016-03-25T09:41:52.903Z,8.97
2016-03-25T09:42:52.876Z,9.03
2016-03-25T09:43:52.846Z,8.95
2016-03-25T09:44:52.834Z,8.91
2016-03-25T09:45:52.805Z,9.02
2016-03-25T09:46:52.776Z,9.02
2016-03-25T09:47:52.747Z,8.89
2016-03-25T09:48:52.734Z,8.95
2016-03-25T09:49:52.706Z,9.04
2016-03-25T09:50:52.678Z,9.06
2016-03-25T09:51:52.664Z,9.04
2016-03-25T09:52:52.637Z,9.03
2016-03-25T09:53:52.608Z,9.13
2016-03-25T09:54:52.594Z,9.03
2016-03-25T09:55:52.567Z,9.13
2016-03-25T09:56:52.538Z,9.1
2016-03-25T09:57:52.509Z,9.14
2016-03-25T09:58:52.496Z,9.11
2016-03-25T09:59:52.468Z,9.22
2016-03-25T10:00:52.439Z,9.22
2016-03-25T10:01:52.427Z,9.25
2016-03-25T10:02:52.398Z,9.26
2016-03-25T10:03:52.385Z,9.23
2016-03-25T10:04:52.356Z,9.39
2016-03-25T10:05:52.328Z,9.37
2016-03-25T10:06:52.299Z,9.32
2016-03-25T10:07:52.286Z,9.26
2016-03-25T10:08:52.257Z,9.31
2016-03-25T10:09:52.229Z,9.31
2016-03-25T10:10:52.216Z,9.36
2016-03-25T10:11:52.187Z,9.34
2016-03-25T10:12:52.174Z,9.29
2016-03-25T10:13:52.146Z,9.37
2016-03-25T10:14:52.118Z,9.31
2016-03-25T10:15:52.089Z,9.37
2016-03-25T10:16:52.075Z,9.43
2016-03-25T10:17:52.048Z,9.44
2016-03-25T10:18:52.034Z,9.31
2016-03-25T10:19:52.006Z,9.36
2016-03-25T10:20:51.978Z,9.39
2016-03-25T10:21:51.949Z,9.26
2016-03-25T10:22:51.951Z,9.36
2016-03-25T10:23:51.906Z,9.32
2016-03-25T10:24:51.895Z,9.32
2016-03-25T10:25:51.866Z,9.28
2016-03-25T10:26:51.837Z,9.28
2016-03-25T10:27:51.824Z,9.37
2016-03-25T10:28:51.795Z,9.29
2016-03-25T10:29:51.766Z,9.37
2016-03-25T10:30:51.738Z,9.32
2016-03-25T10:31:51.725Z,9.28
2016-03-25T10:32:51.697Z,9.32
2016-03-25T10:33:51.668Z,9.19
2016-03-25T10:34:51.640Z,9.22
2016-03-25T10:35:51.627Z,9.16
2016-03-25T10:36:51.598Z,9.26
2016-03-25T10:37:51.569Z,9.23
2016-03-25T10:38:51.557Z,9.26
2016-03-25T10:39:51.528Z,9.22
2016-03-25T10:40:51.499Z,9.19
2016-03-25T10:41:51.471Z,9.19
2016-03-25T10:42:51.457Z,9.14
2016-03-25T10:43:51.429Z,9.16
2016-03-25T10:44:51.417Z,9.16
2016-03-25T10:45:51.387Z,9.26
2016-03-25T10:46:51.375Z,9.16
2016-03-25T10:47:51.331Z,9.25
2016-03-25T10:48:51.318Z,9.23
2016-03-25T10:49:51.289Z,9.19
2016-03-25T10:50:51.276Z,9.14
2016-03-25T10:51:51.232Z,9.16
2016-03-25T10:52:51.219Z,9.14
2016-03-25T10:53:51.191Z,9.1
2016-03-25T10:54:51.178Z,9.11
2016-03-25T10:55:51.149Z,9.14
2016-03-25T10:56:51.120Z,9.11
2016-03-25T10:57:51.092Z,9.18
2016-03-25T10:58:51.063Z,9.18
2016-03-25T10:59:51.050Z,9.06
2016-03-25T11:00:51.022Z,9.1
2016-03-25T11:01:50.993Z,9.13
2016-03-25T11:02:50.980Z,9.22
2016-03-25T11:03:50.952Z,9.25
2016-03-25T11:04:50.924Z,9.26
2016-03-25T11:05:50.910Z,9.31
2016-03-25T11:06:50.882Z,9.4
2016-03-25T11:07:50.854Z,9.41
2016-03-25T11:08:50.824Z,9.28
2016-03-25T11:09:50.812Z,9.34
2016-03-25T11:10:50.783Z,9.37
2016-03-25T11:11:50.754Z,9.36
2016-03-25T11:12:50.742Z,9.31
2016-03-25T11:13:50.713Z,9.34
2016-03-25T11:14:50.700Z,9.29
2016-03-25T11:15:50.671Z,9.31
2016-03-25T11:16:50.643Z,9.4
2016-03-25T11:17:50.614Z,9.51
2016-03-25T11:18:50.601Z,9.48
2016-03-25T11:19:50.573Z,9.48
2016-03-25T11:20:50.545Z,9.47
2016-03-25T11:21:50.531Z,9.54
2016-03-25T11:22:50.503Z,9.48
2016-03-25T11:23:50.475Z,9.43
2016-03-25T11:24:50.462Z,9.32
2016-03-25T11:25:50.434Z,9.48
2016-03-25T11:26:50.405Z,9.43
2016-03-25T11:27:50.392Z,9.32
2016-03-25T11:28:50.364Z,9.4
2016-03-25T11:29:50.335Z,9.48
2016-03-25T11:30:50.322Z,9.48
2016-03-25T11:31:50.294Z,9.54
2016-03-25T11:32:50.281Z,9.44
2016-03-25T11:33:50.252Z,9.56
2016-03-25T11:34:50.223Z,9.58
2016-03-25T11:35:50.195Z,9.59
2016-03-25T11:36:50.197Z,9.55
2016-03-25T11:37:50.169Z,9.59
2016-03-25T11:38:50.141Z,9.47
2016-03-25T11:39:50.112Z,9.5
2016-03-25T11:40:50.086Z,9.55
2016-03-25T11:41:50.165Z,9.51
2016-03-25T11:42:49.884Z,9.56
2016-03-25T11:43:54.225Z,9.47
2016-03-25T11:44:50.055Z,9.43
2016-03-25T11:45:49.980Z,9.55
2016-03-25T11:46:49.935Z,9.47
2016-03-25T11:47:49.907Z,9.43
2016-03-25T11:48:49.893Z,9.48
2016-03-25T11:49:49.865Z,9.47
2016-03-25T11:50:49.852Z,9.51
2016-03-25T11:51:49.823Z,9.48
2016-03-25T11:52:49.795Z,9.56
2016-03-25T11:53:49.765Z,9.44
2016-03-25T11:54:49.741Z,9.59
2016-03-25T11:55:49.703Z,9.47
2016-03-25T11:56:49.678Z,9.39
2016-03-25T11:57:49.638Z,9.39
2016-03-25T11:58:49.604Z,9.44
2016-03-25T11:59:49.619Z,9.46
2016-03-25T12:00:49.555Z,9.44
2016-03-25T12:01:49.522Z,9.51
2016-03-25T12:02:49.505Z,9.44
2016-03-25T12:03:49.459Z,9.43
2016-03-25T12:04:49.445Z,9.48
2016-03-25T12:05:49.416Z,9.51
2016-03-25T12:06:49.401Z,9.51
2016-03-25T12:07:49.356Z,9.48
2016-03-25T12:08:49.342Z,9.48
2016-03-25T12:09:49.314Z,9.47
2016-03-25T12:10:49.299Z,9.51
2016-03-25T12:11:49.270Z,9.56
2016-03-25T12:12:49.240Z,9.43
2016-03-25T12:13:49.228Z,9.58
2016-03-25T12:14:49.200Z,9.58
2016-03-25T12:15:49.170Z,9.47
2016-03-25T12:16:49.158Z,9.55
2016-03-25T12:17:49.129Z,9.41
2016-03-25T12:18:49.100Z,9.56
2016-03-25T12:19:49.088Z,9.59
2016-03-25T12:20:49.059Z,9.58
2016-03-25T12:21:49.030Z,9.59
2016-03-25T12:22:49.018Z,9.58
2016-03-25T12:23:48.989Z,9.58
2016-03-25T12:24:48.961Z,9.56
2016-03-25T12:25:48.947Z,9.55
2016-03-25T12:26:48.919Z,9.58
2016-03-25T12:27:48.905Z,9.62
2016-03-25T12:28:48.877Z,9.61
2016-03-25T12:29:48.849Z,9.62
2016-03-25T12:30:48.835Z,9.58
2016-03-25T12:31:48.808Z,9.58
2016-03-25T12:32:48.779Z,9.61
2016-03-25T12:33:48.765Z,9.58
2016-03-25T12:34:48.738Z,9.46
2016-03-25T12:35:48.709Z,9.46
2016-03-25T12:36:48.696Z,9.55
2016-03-25T12:37:48.667Z,9.55
2016-03-25T12:38:48.639Z,9.47
2016-03-25T12:39:48.735Z,9.47
2016-03-25T12:40:48.426Z,9.46
2016-03-25T12:41:48.584Z,9.48
2016-03-25T12:42:48.556Z,9.56
2016-03-25T12:43:48.528Z,9.58
2016-03-25T12:44:48.498Z,9.44
2016-03-25T12:45:48.501Z,9.47
2016-03-25T12:46:48.488Z,9.43
2016-03-25T12:47:48.429Z,9.54
2016-03-25T12:48:48.400Z,9.4
2016-03-25T12:49:48.372Z,9.54
2016-03-25T12:50:48.358Z,9.46
2016-03-25T12:51:48.330Z,9.5
2016-03-25T12:52:48.302Z,9.5
2016-03-25T12:53:48.272Z,9.48
2016-03-25T12:54:48.135Z,9.47
2016-03-25T12:55:48.247Z,9.46
2016-03-25T12:56:48.203Z,9.51
2016-03-25T12:57:48.237Z,9.54
2016-03-25T12:58:48.161Z,9.48
2016-03-25T12:59:48.149Z,9.5
2016-03-25T13:00:48.104Z,9.56
2016-03-25T13:01:48.091Z,9.44
2016-03-25T13:02:48.079Z,9.48
2016-03-25T13:03:48.049Z,9.47
2016-03-25T13:04:48.021Z,9.44
2016-03-25T13:05:47.993Z,9.43
2016-03-25T13:06:47.964Z,9.51
2016-03-25T13:07:47.951Z,9.46
2016-03-25T13:08:47.923Z,9.47
2016-03-25T13:09:47.926Z,9.5
2016-03-25T13:10:47.896Z,9.58
2016-03-25T13:11:47.853Z,9.61
2016-03-25T13:12:47.823Z,9.44
2016-03-25T13:13:47.812Z,9.54
2016-03-25T13:14:47.782Z,9.4
2016-03-25T13:15:47.754Z,9.47
2016-03-25T13:16:47.726Z,9.51
2016-03-25T13:17:47.712Z,9.47
2016-03-25T13:18:47.684Z,9.51
2016-03-25T13:19:47.655Z,9.43
2016-03-25T13:20:47.642Z,9.51
2016-03-25T13:21:47.614Z,9.5